sensor_id;sensor_type;location;lat;lon;timestamp;pressure;altitude;pressure_sealevel;temperature;humidity
39729;BME280;25402;42.004;23.088;2022-11-20T00:00:18;96767.31;;;13.28;47.55
39729;BME280;25402;42.004;23.088;2022-11-20T00:02:52;96847.41;;;13.75;47.67
39729;BME280;25402;42.004;23.088;2022-11-20T00:05:25;96857.22;;;14.01;47.55
39729;BME280;25402;42.004;23.088;2022-11-20T00:07:59;96775.34;;;13.41;47.38
39729;BME280;25402;42.004;23.088;2022-11-20T00:10:30;96778.75;;;13.61;47.27
39729;BME280;25402;42.004;23.088;2022-11-20T00:13:04;96769.66;;;13.49;47.31
39729;BME280;25402;42.004;23.088;2022-11-20T00:15:33;96845.56;;;13.94;47.63
39729;BME280;25402;42.004;23.088;2022-11-20T00:18:08;96851.78;;;13.76;48.05
39729;BME280;25402;42.004;23.088;2022-11-20T00:20:36;96781.25;;;13.38;47.50
39729;BME280;25402;42.004;23.088;2022-11-20T00:23:15;96818.56;;;13.74;47.55
39729;BME280;25402;42.004;23.088;2022-11-20T00:25:44;96834.72;;;13.69;47.92
39729;BME280;25402;42.004;23.088;2022-11-20T00:28:17;96830.84;;;13.58;48.13
39729;BME280;25402;42.004;23.088;2022-11-20T00:30:48;96878.38;;;13.99;47.55
39729;BME280;25402;42.004;23.088;2022-11-20T00:33:21;96830.56;;;13.66;47.79
39729;BME280;25402;42.004;23.088;2022-11-20T00:36:04;96783.44;;;13.23;47.94
39729;BME280;25402;42.004;23.088;2022-11-20T00:38:37;96864.66;;;13.62;48.40
39729;BME280;25402;42.004;23.088;2022-11-20T00:41:17;96828.41;;;13.43;47.92
39729;BME280;25402;42.004;23.088;2022-11-20T00:43:46;96761.41;;;13.12;47.80
39729;BME280;25402;42.004;23.088;2022-11-20T00:46:19;96879.25;;;13.93;47.53
39729;BME280;25402;42.004;23.088;2022-11-20T00:49:02;96824.78;;;13.56;47.68
39729;BME280;25402;42.004;23.088;2022-11-20T00:51:34;96780.78;;;13.41;47.82
39729;BME280;25402;42.004;23.088;2022-11-20T00:54:03;96840.22;;;13.62;47.89
39729;BME280;25402;42.004;23.088;2022-11-20T00:56:42;96772.53;;;13.29;47.74
39729;BME280;25402;42.004;23.088;2022-11-20T00:59:13;96876.75;;;13.91;47.95
39729;BME280;25402;42.004;23.088;2022-11-20T01:01:40;96783.06;;;13.44;47.60
39729;BME280;25402;42.004;23.088;2022-11-20T01:04:08;96728.31;;;13.22;47.24
39729;BME280;25402;42.004;23.088;2022-11-20T01:06:50;96837.16;;;13.77;47.66
39729;BME280;25402;42.004;23.088;2022-11-20T01:09:19;96740.91;;;13.16;47.28
39729;BME280;25402;42.004;23.088;2022-11-20T01:11:54;96761.78;;;13.41;47.66
39729;BME280;25402;42.004;23.088;2022-11-20T01:14:23;96732.31;;;13.19;47.56
39729;BME280;25402;42.004;23.088;2022-11-20T01:17:03;96685.72;;;12.98;47.36
39729;BME280;25402;42.004;23.088;2022-11-20T01:19:42;96703.06;;;13.22;46.86
39729;BME280;25402;42.004;23.088;2022-11-20T01:22:20;96773.72;;;13.65;46.59
39729;BME280;25402;42.004;23.088;2022-11-20T01:25:16;96704.47;;;13.24;46.89
39729;BME280;25402;42.004;23.088;2022-11-20T01:27:47;96766.84;;;13.37;47.13
39729;BME280;25402;42.004;23.088;2022-11-20T01:30:16;96746.91;;;13.50;46.92
39729;BME280;25402;42.004;23.088;2022-11-20T01:32:44;96781.56;;;13.73;46.62
39729;BME280;25402;42.004;23.088;2022-11-20T01:35:12;96752.81;;;13.65;46.39
39729;BME280;25402;42.004;23.088;2022-11-20T01:37:42;96783.00;;;13.75;46.44
39729;BME280;25402;42.004;23.088;2022-11-20T01:40:15;96767.78;;;13.93;45.98
39729;BME280;25402;42.004;23.088;2022-11-20T01:43:06;96695.47;;;13.48;45.99
39729;BME280;25402;42.004;23.088;2022-11-20T01:46:02;96785.34;;;13.90;46.19
39729;BME280;25402;42.004;23.088;2022-11-20T01:48:47;96777.97;;;13.79;46.14
39729;BME280;25402;42.004;23.088;2022-11-20T01:51:27;96759.38;;;13.76;45.93
39729;BME280;25402;42.004;23.088;2022-11-20T01:54:02;96747.38;;;13.65;46.33
39729;BME280;25402;42.004;23.088;2022-11-20T01:56:40;96712.09;;;13.95;45.28
39729;BME280;25402;42.004;23.088;2022-11-20T01:59:13;96726.81;;;14.06;45.01
39729;BME280;25402;42.004;23.088;2022-11-20T02:01:45;96752.75;;;14.27;44.93
39729;BME280;25402;42.004;23.088;2022-11-20T02:04:15;96752.97;;;13.88;45.60
39729;BME280;25402;42.004;23.088;2022-11-20T02:06:49;96666.03;;;13.45;45.64
39729;BME280;25402;42.004;23.088;2022-11-20T02:09:22;96711.22;;;13.65;45.84
39729;BME280;25402;42.004;23.088;2022-11-20T02:11:58;96797.16;;;14.39;45.18
39729;BME280;25402;42.004;23.088;2022-11-20T02:14:28;96686.91;;;13.51;45.08
39729;BME280;25402;42.004;23.088;2022-11-20T02:16:57;96767.78;;;14.11;45.35
39729;BME280;25402;42.004;23.088;2022-11-20T02:19:29;96678.53;;;13.53;45.22
39729;BME280;25402;42.004;23.088;2022-11-20T02:22:12;96696.63;;;13.77;45.17
39729;BME280;25402;42.004;23.088;2022-11-20T02:25:04;96668.84;;;13.57;45.20
39729;BME280;25402;42.004;23.088;2022-11-20T02:27:36;96780.16;;;14.25;45.29
39729;BME280;25402;42.004;23.088;2022-11-20T02:30:07;96689.41;;;13.53;45.78
39729;BME280;25402;42.004;23.088;2022-11-20T02:32:37;96781.81;;;14.08;45.60
39729;BME280;25402;42.004;23.088;2022-11-20T02:37:55;96666.72;;;13.59;44.85
39729;BME280;25402;42.004;23.088;2022-11-20T02:40:28;96719.44;;;13.95;45.08
39729;BME280;25402;42.004;23.088;2022-11-20T02:42:57;96643.31;;;13.76;44.40
39729;BME280;25402;42.004;23.088;2022-11-20T02:45:25;96632.59;;;13.81;44.52
39729;BME280;25402;42.004;23.088;2022-11-20T02:47:57;96664.56;;;13.68;44.51
39729;BME280;25402;42.004;23.088;2022-11-20T02:50:29;96683.72;;;13.54;45.37
39729;BME280;25402;42.004;23.088;2022-11-20T02:53:00;96742.06;;;13.88;44.99
39729;BME280;25402;42.004;23.088;2022-11-20T02:55:31;96742.81;;;13.59;46.03
39729;BME280;25402;42.004;23.088;2022-11-20T02:58:11;96683.91;;;13.10;46.29
39729;BME280;25402;42.004;23.088;2022-11-20T03:00:41;96686.41;;;13.11;46.20
39729;BME280;25402;42.004;23.088;2022-11-20T03:03:17;96659.84;;;12.70;46.58
39729;BME280;25402;42.004;23.088;2022-11-20T03:05:52;96766.25;;;13.78;45.97
39729;BME280;25402;42.004;23.088;2022-11-20T03:08:22;96733.03;;;13.76;45.34
39729;BME280;25402;42.004;23.088;2022-11-20T03:11:02;96822.63;;;14.26;45.40
39729;BME280;25402;42.004;23.088;2022-11-20T03:13:34;96696.63;;;13.59;45.41
39729;BME280;25402;42.004;23.088;2022-11-20T03:16:10;96746.53;;;13.40;46.58
39729;BME280;25402;42.004;23.088;2022-11-20T03:18:41;96728.72;;;13.44;46.29
39729;BME280;25402;42.004;23.088;2022-11-20T03:31:44;96771.66;;;13.60;46.31
39729;BME280;25402;42.004;23.088;2022-11-20T03:34:13;96652.03;;;13.05;45.94
39729;BME280;25402;42.004;23.088;2022-11-20T03:36:42;96767.13;;;13.72;45.82
39729;BME280;25402;42.004;23.088;2022-11-20T03:39:27;96808.00;;;14.02;45.74
39729;BME280;25402;42.004;23.088;2022-11-20T03:42:11;96733.09;;;13.70;45.52
39729;BME280;25402;42.004;23.088;2022-11-20T03:44:57;96727.72;;;13.63;45.64
39729;BME280;25402;42.004;23.088;2022-11-20T03:47:30;96804.63;;;14.25;45.26
39729;BME280;25402;42.004;23.088;2022-11-20T03:49:59;96811.44;;;14.16;45.50
39729;BME280;25402;42.004;23.088;2022-11-20T03:52:27;96682.47;;;13.32;45.65
39729;BME280;25402;42.004;23.088;2022-11-20T03:54:55;96684.56;;;13.30;45.45
39729;BME280;25402;42.004;23.088;2022-11-20T03:57:29;96801.31;;;14.05;45.47
39729;BME280;25402;42.004;23.088;2022-11-20T03:59:58;96730.69;;;13.37;46.11
39729;BME280;25402;42.004;23.088;2022-11-20T04:02:31;96675.91;;;13.22;46.08
39729;BME280;25402;42.004;23.088;2022-11-20T06:01:51;96849.63;;;14.94;43.24
39729;BME280;25402;42.004;23.088;2022-11-20T06:20:29;96867.94;;;15.05;43.48
39729;BME280;25402;42.004;23.088;2022-11-20T08:17:33;96820.47;;;15.13;43.51
39729;BME280;25402;42.004;23.088;2022-11-20T10:04:15;96785.72;;;15.50;42.28
39729;BME280;25402;42.004;23.088;2022-11-20T10:07:06;96796.59;;;15.61;41.91
39729;BME280;25402;42.004;23.088;2022-11-20T10:15:05;96780.25;;;15.50;42.34
39729;BME280;25402;42.004;23.088;2022-11-20T10:18:15;96753.09;;;15.32;42.47
39729;BME280;25402;42.004;23.088;2022-11-20T14:24:18;96667.47;;;14.33;43.25
39729;BME280;25402;42.004;23.088;2022-11-20T14:26:48;96659.69;;;14.36;43.47
39729;BME280;25402;42.004;23.088;2022-11-20T14:29:19;96634.16;;;14.19;43.20
39729;BME280;25402;42.004;23.088;2022-11-20T14:31:52;96648.31;;;14.28;43.27
39729;BME280;25402;42.004;23.088;2022-11-20T14:34:26;96651.03;;;14.28;43.46
39729;BME280;25402;42.004;23.088;2022-11-20T14:37:10;96627.84;;;14.07;43.67
39729;BME280;25402;42.004;23.088;2022-11-20T14:40:24;96627.72;;;14.02;43.30
39729;BME280;25402;42.004;23.088;2022-11-20T14:43:04;96648.69;;;13.83;44.02
39729;BME280;25402;42.004;23.088;2022-11-20T14:45:52;96641.50;;;13.70;44.63
39729;BME280;25402;42.004;23.088;2022-11-20T14:48:39;96655.34;;;13.69;45.31
39729;BME280;25402;42.004;23.088;2022-11-20T14:51:30;96652.84;;;13.67;45.29
39729;BME280;25402;42.004;23.088;2022-11-20T14:54:17;96651.84;;;13.80;44.96
39729;BME280;25402;42.004;23.088;2022-11-20T14:56:58;96674.06;;;13.59;46.42
39729;BME280;25402;42.004;23.088;2022-11-20T14:59:35;96678.16;;;13.43;47.44
39729;BME280;25402;42.004;23.088;2022-11-20T15:02:08;96675.94;;;13.58;47.26
39729;BME280;25402;42.004;23.088;2022-11-20T15:04:45;96665.63;;;13.42;47.56
39729;BME280;25402;42.004;23.088;2022-11-20T15:07:24;96688.06;;;13.37;48.27
39729;BME280;25402;42.004;23.088;2022-11-20T15:10:22;96685.00;;;13.27;48.70
39729;BME280;25402;42.004;23.088;2022-11-20T15:13:01;96673.78;;;12.99;49.62
39729;BME280;25402;42.004;23.088;2022-11-20T15:15:48;96666.44;;;13.06;49.68
39729;BME280;25402;42.004;23.088;2022-11-20T15:18:36;96657.69;;;13.04;49.70
39729;BME280;25402;42.004;23.088;2022-11-20T15:21:28;96662.13;;;12.73;50.49
39729;BME280;25402;42.004;23.088;2022-11-20T15:24:00;96685.16;;;12.89;50.67
39729;BME280;25402;42.004;23.088;2022-11-20T15:26:39;96695.72;;;12.97;50.65
39729;BME280;25402;42.004;23.088;2022-11-20T15:29:17;96695.63;;;13.10;50.09
39729;BME280;25402;42.004;23.088;2022-11-20T15:32:07;96700.59;;;13.13;50.21
39729;BME280;25402;42.004;23.088;2022-11-20T15:35:01;96712.78;;;13.29;49.93
39729;BME280;25402;42.004;23.088;2022-11-20T15:37:33;96722.59;;;13.30;50.26
39729;BME280;25402;42.004;23.088;2022-11-20T15:40:14;96702.94;;;13.10;50.59
39729;BME280;25402;42.004;23.088;2022-11-20T15:42:47;96726.28;;;13.17;50.68
39729;BME280;25402;42.004;23.088;2022-11-20T15:46:03;96732.66;;;13.05;51.01
39729;BME280;25402;42.004;23.088;2022-11-20T15:48:39;96728.31;;;12.97;51.35
39729;BME280;25402;42.004;23.088;2022-11-20T15:51:23;96711.91;;;13.10;50.37
39729;BME280;25402;42.004;23.088;2022-11-20T15:54:23;96721.31;;;13.08;50.39
39729;BME280;25402;42.004;23.088;2022-11-20T15:57:16;96731.31;;;12.89;50.75
39729;BME280;25402;42.004;23.088;2022-11-20T15:59:59;96727.53;;;12.90;50.55
39729;BME280;25402;42.004;23.088;2022-11-20T16:02:44;96708.56;;;12.52;50.90
39729;BME280;25402;42.004;23.088;2022-11-20T16:05:13;96715.34;;;12.68;51.12
39729;BME280;25402;42.004;23.088;2022-11-20T16:07:52;96695.06;;;12.77;50.79
39729;BME280;25402;42.004;23.088;2022-11-20T16:10:47;96688.66;;;12.65;50.55
39729;BME280;25402;42.004;23.088;2022-11-20T16:13:22;96702.00;;;12.66;50.62
39729;BME280;25402;42.004;23.088;2022-11-20T16:16:27;96703.38;;;12.82;50.52
39729;BME280;25402;42.004;23.088;2022-11-20T19:34:31;96449.88;;;11.02;51.88
39729;BME280;25402;42.004;23.088;2022-11-20T19:37:09;96468.66;;;10.84;52.88
39729;BME280;25402;42.004;23.088;2022-11-20T19:39:55;96451.88;;;10.69;52.98
39729;BME280;25402;42.004;23.088;2022-11-20T19:43:02;96535.97;;;11.32;53.26
39729;BME280;25402;42.004;23.088;2022-11-20T19:45:52;96476.09;;;11.02;52.78
39729;BME280;25402;42.004;23.088;2022-11-20T19:48:31;96458.81;;;11.03;52.59
39729;BME280;25402;42.004;23.088;2022-11-20T19:51:33;96438.44;;;11.00;52.14
39729;BME280;25402;42.004;23.088;2022-11-20T22:27:44;96167.28;;;10.35;51.65
39729;BME280;25402;42.004;23.088;2022-11-20T22:30:27;96231.03;;;10.81;51.55
